Time;durP1;ratioP1;P1;durP2;ratioP2;P2;SDS_P1;SDS_P2;PMS_P1;PMS_P2;Temp;Humidity;BMP_temperature;BMP_pressure;BME280_temperature;BME280_humidity;BME280_pressure;Samples;Min_cycle;Max_cycle;Signal;HPM_P1;HPM_P2
2021/07/21 00:00:48;;;;;;;4.65;3.95;;;22.10;65.40;;;;;;5097408;28;20113;-72
2021/07/21 00:03:14;;;;;;;4.45;3.50;;;22.20;65.40;;;;;;5097680;28;20427;-72
2021/07/21 00:05:40;;;;;;;5.25;4.45;;;22.10;65.40;;;;;;5096874;28;20105;-71
2021/07/21 00:08:07;;;;;;;4.47;3.80;;;22.10;65.30;;;;;;5097490;28;20040;-72
2021/07/21 00:10:33;;;;;;;4.95;3.75;;;22.10;65.30;;;;;;5097188;28;20036;-72
2021/07/21 00:16:14;;;;;;;4.38;3.38;;;22.10;65.30;;;;;;5096827;28;20051;-72
2021/07/21 00:21:13;;;;;;;4.53;3.53;;;22.10;65.40;;;;;;5097234;28;20063;-72
2021/07/21 00:23:39;;;;;;;4.30;3.75;;;22.10;65.40;;;;;;5096437;28;20036;-72
2021/07/21 00:26:06;;;;;;;4.20;3.40;;;22.10;65.40;;;;;;5096761;28;20035;-72
2021/07/21 00:28:34;;;;;;;5.07;3.83;;;22.10;65.50;;;;;;5096690;28;20051;-72
2021/07/21 00:31:01;;;;;;;4.68;3.88;;;22.10;65.40;;;;;;5096524;28;20131;-72
2021/07/21 00:33:27;;;;;;;5.10;4.15;;;22.10;65.40;;;;;;5096403;28;20059;-72
2021/07/21 00:35:53;;;;;;;5.22;4.28;;;22.10;65.50;;;;;;5096779;28;20067;-71
2021/07/21 00:38:19;;;;;;;5.55;4.60;;;22.10;65.50;;;;;;5097072;28;20059;-72
2021/07/21 00:40:44;;;;;;;5.88;3.75;;;22.10;65.50;;;;;;5096370;28;20342;-72
2021/07/21 00:43:10;;;;;;;5.00;4.25;;;22.10;65.50;;;;;;5096106;28;20048;-72
2021/07/21 00:45:36;;;;;;;4.18;3.65;;;22.10;65.50;;;;;;5096078;28;20122;-72
2021/07/21 00:48:02;;;;;;;4.05;3.60;;;22.10;65.50;;;;;;5096375;28;20047;-72
2021/07/21 00:50:28;;;;;;;4.30;3.67;;;22.10;65.60;;;;;;5095867;28;20043;-72
2021/07/21 00:52:55;;;;;;;4.35;3.70;;;22.00;65.40;;;;;;5096328;28;20043;-72
2021/07/21 00:55:20;;;;;;;4.60;3.83;;;22.00;65.50;;;;;;5096157;28;20055;-72
2021/07/21 00:57:46;;;;;;;4.22;3.60;;;22.00;65.40;;;;;;5096590;28;20040;-71
2021/07/21 01:00:16;;;;;;;4.63;3.97;;;22.10;65.50;;;;;;5096152;28;20097;-72
2021/07/21 01:02:43;;;;;;;4.00;3.55;;;22.10;65.60;;;;;;5095939;28;20126;-72
2021/07/21 01:05:14;;;;;;;4.80;3.75;;;22.00;65.50;;;;;;5078600;28;20043;-72
2021/07/21 01:07:44;;;;;;;4.32;3.90;;;22.00;65.50;;;;;;5095196;28;20036;-71
2021/07/21 01:10:11;;;;;;;5.90;4.22;;;22.00;65.50;;;;;;5095700;28;20119;-72
2021/07/21 01:12:52;;;;;;;4.65;4.18;;;22.00;65.60;;;;;;5096033;28;20052;-71
2021/07/21 01:15:23;;;;;;;3.88;3.40;;;22.00;65.60;;;;;;5095888;28;20055;-71
2021/07/21 01:17:59;;;;;;;5.00;3.90;;;22.00;65.60;;;;;;5096013;28;20409;-71
2021/07/21 01:20:46;;;;;;;4.43;3.72;;;22.00;65.60;;;;;;5095197;28;20100;-71
2021/07/21 01:23:27;;;;;;;5.60;4.15;;;22.00;65.60;;;;;;5095880;28;20066;-72
2021/07/21 01:26:06;;;;;;;5.00;4.10;;;22.00;65.60;;;;;;5095501;28;20443;-72
2021/07/21 01:28:33;;;;;;;4.70;3.42;;;22.00;65.60;;;;;;5095541;28;20355;-71
2021/07/21 01:31:01;;;;;;;3.95;3.30;;;22.00;65.60;;;;;;5095228;28;20048;-72
2021/07/21 01:33:29;;;;;;;5.55;4.38;;;22.00;65.70;;;;;;5095623;28;20051;-72
2021/07/21 01:36:01;;;;;;;5.55;4.30;;;22.00;65.60;;;;;;5095557;28;20044;-72
2021/07/21 01:38:40;;;;;;;4.35;3.40;;;22.00;65.70;;;;;;5095346;28;20109;-72
2021/07/21 01:41:18;;;;;;;4.95;3.88;;;22.00;65.60;;;;;;5095058;28;20119;-72
2021/07/21 01:43:48;;;;;;;5.03;4.28;;;22.00;65.70;;;;;;5095421;28;20044;-71
2021/07/21 01:46:15;;;;;;;4.18;3.75;;;22.00;65.70;;;;;;5095848;28;20105;-72
2021/07/21 01:48:45;;;;;;;5.88;4.00;;;22.00;65.70;;;;;;5095224;28;20046;-72
2021/07/21 01:51:13;;;;;;;4.65;3.65;;;22.00;65.70;;;;;;5095852;28;20347;-72
2021/07/21 01:53:40;;;;;;;5.15;4.05;;;22.00;65.70;;;;;;5095263;28;20067;-72
2021/07/21 01:56:08;;;;;;;5.00;3.92;;;22.00;65.70;;;;;;5095173;28;20455;-71
2021/07/21 01:58:36;;;;;;;4.65;3.60;;;22.00;65.70;;;;;;5095516;28;20067;-72
2021/07/21 02:01:04;;;;;;;4.65;4.03;;;21.90;65.70;;;;;;5095135;28;20036;-71
2021/07/21 02:03:32;;;;;;;4.50;3.88;;;21.90;65.70;;;;;;5094923;28;20048;-72
2021/07/21 02:06:01;;;;;;;4.93;4.45;;;22.00;65.80;;;;;;5095041;28;20048;-71
2021/07/21 02:08:28;;;;;;;4.82;4.07;;;21.90;66.40;;;;;;5095524;28;20093;-71
2021/07/21 02:10:58;;;;;;;4.65;4.18;;;21.90;65.80;;;;;;5095107;28;20111;-71
2021/07/21 02:13:28;;;;;;;4.32;3.75;;;21.90;65.70;;;;;;5094983;28;20032;-71
2021/07/21 02:15:54;;;;;;;4.78;4.13;;;21.90;65.80;;;;;;5095310;28;20032;-71
2021/07/21 02:18:20;;;;;;;5.38;4.13;;;21.90;65.80;;;;;;5096909;28;20064;-71
2021/07/21 02:20:47;;;;;;;4.82;4.05;;;21.90;65.80;;;;;;5098899;28;20446;-72
2021/07/21 02:23:15;;;;;;;5.63;4.50;;;21.90;65.90;;;;;;5098836;28;20336;-72
2021/07/21 02:25:41;;;;;;;6.25;4.30;;;21.90;65.90;;;;;;5099871;28;20044;-72
2021/07/21 02:28:07;;;;;;;4.93;4.43;;;21.90;65.90;;;;;;5099637;28;20040;-72
2021/07/21 02:30:35;;;;;;;5.80;4.97;;;21.90;65.90;;;;;;5098938;28;20332;-72
2021/07/21 02:33:22;;;;;;;6.35;4.70;;;21.90;65.80;;;;;;5099004;28;20120;-72
2021/07/21 02:35:48;;;;;;;5.85;4.72;;;21.90;65.80;;;;;;5098799;28;20087;-72
2021/07/21 02:38:14;;;;;;;4.80;4.13;;;21.90;65.80;;;;;;5099383;28;20075;-72
2021/07/21 02:40:42;;;;;;;5.25;4.50;;;21.90;65.80;;;;;;5099150;28;20040;-72
2021/07/21 02:43:08;;;;;;;7.03;4.25;;;21.90;66.40;;;;;;5098790;28;20054;-72
2021/07/21 02:45:35;;;;;;;4.75;4.25;;;21.80;65.70;;;;;;5098705;28;20119;-72
2021/07/21 02:48:03;;;;;;;4.88;4.00;;;21.90;65.70;;;;;;5098510;28;20101;-71
2021/07/21 02:50:29;;;;;;;4.88;4.38;;;21.90;65.70;;;;;;5098406;28;20042;-71
2021/07/21 02:53:02;;;;;;;4.82;4.32;;;21.80;65.70;;;;;;5098478;28;20058;-71
2021/07/21 02:55:50;;;;;;;5.07;4.17;;;21.90;65.70;;;;;;5098285;28;20063;-71
2021/07/21 02:58:55;;;;;;;6.00;4.78;;;21.80;65.70;;;;;;5098481;28;20040;-71
2021/07/21 03:01:22;;;;;;;6.47;4.72;;;21.80;65.60;;;;;;5047325;28;20143;-71
2021/07/21 03:03:50;;;;;;;5.38;4.15;;;21.80;65.70;;;;;;5098386;28;20109;-71
2021/07/21 03:06:19;;;;;;;5.35;4.75;;;21.80;65.70;;;;;;5098335;28;20055;-71
2021/07/21 03:08:48;;;;;;;5.80;4.43;;;21.80;65.70;;;;;;5098070;28;20036;-72
2021/07/21 03:11:16;;;;;;;5.22;4.53;;;21.80;65.70;;;;;;5098770;28;20086;-72
2021/07/21 03:13:47;;;;;;;6.30;5.13;;;21.80;65.70;;;;;;5098136;28;20048;-71
2021/07/21 03:16:14;;;;;;;4.82;4.25;;;21.80;65.70;;;;;;5098295;28;20442;-72
2021/07/21 03:18:44;;;;;;;5.20;4.00;;;21.80;65.70;;;;;;5097723;28;20079;-72
2021/07/21 03:21:11;;;;;;;5.75;4.50;;;21.80;65.70;;;;;;5098093;28;20059;-72
2021/07/21 03:23:37;;;;;;;6.47;4.50;;;21.80;65.70;;;;;;5098404;28;20116;-72
2021/07/21 03:26:05;;;;;;;5.35;4.35;;;21.80;65.70;;;;;;5098307;28;20109;-72
2021/07/21 03:28:33;;;;;;;5.63;4.78;;;21.80;65.70;;;;;;5097641;28;20402;-72
2021/07/21 03:31:00;;;;;;;5.55;4.75;;;21.80;65.70;;;;;;5096938;28;20044;-72
2021/07/21 03:33:28;;;;;;;6.60;4.50;;;21.70;65.60;;;;;;5098002;28;20116;-72
2021/07/21 03:36:00;;;;;;;4.97;4.47;;;21.80;65.70;;;;;;5097556;28;20040;-72
2021/07/21 03:38:27;;;;;;;5.15;4.50;;;21.80;65.70;;;;;;5097717;28;20102;-72
2021/07/21 03:40:55;;;;;;;5.50;4.47;;;21.80;65.70;;;;;;5098035;28;20102;-71
2021/07/21 03:43:22;;;;;;;6.32;4.50;;;21.70;65.60;;;;;;5097569;28;20048;-71
2021/07/21 03:45:50;;;;;;;5.30;4.60;;;21.70;65.60;;;;;;5097457;28;20044;-71
2021/07/21 03:48:22;;;;;;;6.45;4.95;;;21.70;65.60;;;;;;5097379;28;20139;-71
2021/07/21 03:50:48;;;;;;;4.95;4.25;;;21.70;65.60;;;;;;5097926;28;20070;-72
2021/07/21 03:53:15;;;;;;;4.78;4.28;;;21.70;65.60;;;;;;5097995;28;20370;-72
2021/07/21 03:55:41;;;;;;;5.05;4.28;;;21.70;65.60;;;;;;5097549;28;20147;-72
2021/07/21 03:58:08;;;;;;;5.03;3.97;;;21.70;65.60;;;;;;5097445;28;20064;-72
2021/07/21 04:00:35;;;;;;;6.03;5.15;;;21.70;65.60;;;;;;5097741;28;20031;-72
2021/07/21 04:03:02;;;;;;;6.20;4.72;;;21.70;65.60;;;;;;5097207;28;20108;-72
2021/07/21 04:05:32;;;;;;;6.35;4.88;;;21.70;65.60;;;;;;5097613;28;20383;-72
2021/07/21 04:07:59;;;;;;;5.10;4.38;;;21.70;65.60;;;;;;5097187;28;20130;-72
2021/07/21 04:10:30;;;;;;;4.72;4.05;;;21.70;65.70;;;;;;5097363;28;20051;-71
2021/07/21 04:13:02;;;;;;;5.20;3.97;;;21.70;65.70;;;;;;5097196;28;20123;-72
2021/07/21 04:15:29;;;;;;;5.90;4.65;;;21.70;65.70;;;;;;5096714;28;20097;-72
2021/07/21 04:17:56;;;;;;;5.60;4.80;;;21.70;65.70;;;;;;5097273;28;20040;-72
2021/07/21 04:20:23;;;;;;;4.82;4.32;;;21.70;65.70;;;;;;5096647;28;20036;-72
2021/07/21 04:22:51;;;;;;;5.78;4.50;;;21.70;65.70;;;;;;5096784;28;20048;-72
2021/07/21 04:25:19;;;;;;;5.80;4.57;;;21.70;65.70;;;;;;5096738;28;20039;-71
2021/07/21 04:27:46;;;;;;;6.18;4.70;;;21.70;65.70;;;;;;5096807;28;20431;-71
2021/07/21 04:30:12;;;;;;;5.05;3.95;;;21.70;65.70;;;;;;5096317;28;20044;-71
2021/07/21 04:32:40;;;;;;;5.00;4.07;;;21.70;65.70;;;;;;5079179;28;20052;-71
2021/07/21 04:35:08;;;;;;;5.43;4.35;;;21.70;65.70;;;;;;5096643;28;20036;-71
2021/07/21 04:37:38;;;;;;;5.88;4.53;;;21.60;65.70;;;;;;5096670;28;20443;-71
2021/07/21 04:40:05;;;;;;;6.05;4.53;;;21.70;65.80;;;;;;5096507;28;20204;-71
2021/07/21 04:42:31;;;;;;;4.70;4.18;;;21.60;65.70;;;;;;5096293;28;20059;-72
2021/07/21 04:44:57;;;;;;;6.18;5.13;;;21.60;65.70;;;;;;5096340;28;20048;-71
2021/07/21 04:47:23;;;;;;;5.47;4.10;;;21.60;65.70;;;;;;5096327;28;20043;-71
2021/07/21 04:49:51;;;;;;;5.43;4.38;;;21.60;65.70;;;;;;5096251;28;20043;-72
2021/07/21 04:52:20;;;;;;;4.75;4.30;;;21.60;65.80;;;;;;5096304;28;20043;-72
2021/07/21 04:54:46;;;;;;;4.63;4.22;;;21.60;65.80;;;;;;5096087;28;20047;-72
2021/07/21 04:57:12;;;;;;;5.20;4.30;;;21.60;65.80;;;;;;5095621;28;20417;-72
2021/07/21 04:59:38;;;;;;;4.82;3.95;;;21.70;65.80;;;;;;5096596;28;20075;-72
2021/07/21 05:02:05;;;;;;;5.18;4.57;;;21.60;65.70;;;;;;5095782;28;20350;-71
2021/07/21 05:04:34;;;;;;;5.38;4.18;;;21.60;65.80;;;;;;5096303;28;20043;-72
2021/07/21 05:07:00;;;;;;;4.95;4.43;;;21.60;65.70;;;;;;5096073;28;20055;-71
2021/07/21 05:09:25;;;;;;;4.97;4.10;;;21.60;65.70;;;;;;5096048;28;20051;-72
2021/07/21 05:11:51;;;;;;;5.22;4.35;;;21.60;65.70;;;;;;5096356;28;20028;-72
2021/07/21 05:14:18;;;;;;;4.93;4.13;;;21.60;65.80;;;;;;5095843;28;20058;-71
2021/07/21 05:16:44;;;;;;;4.78;4.10;;;21.60;65.80;;;;;;5095955;28;20109;-71
2021/07/21 05:19:11;;;;;;;5.10;4.30;;;21.60;65.80;;;;;;5095630;28;20036;-71
2021/07/21 05:21:37;;;;;;;5.28;4.45;;;21.60;65.80;;;;;;5095548;28;20101;-71
2021/07/21 05:24:04;;;;;;;5.40;4.13;;;21.60;65.80;;;;;;5095442;28;20105;-71
2021/07/21 05:26:30;;;;;;;4.68;3.97;;;21.60;65.90;;;;;;5095562;28;20052;-72
2021/07/21 05:28:57;;;;;;;4.80;4.05;;;21.60;65.90;;;;;;5095619;28;20450;-72
2021/07/21 05:31:23;;;;;;;4.97;4.18;;;21.60;65.90;;;;;;5095612;28;20044;-71
2021/07/21 05:33:49;;;;;;;5.32;4.43;;;21.60;65.80;;;;;;5095654;28;20040;-72
2021/07/21 05:36:18;;;;;;;5.18;3.92;;;21.60;65.80;;;;;;5096095;28;20332;-72
2021/07/21 05:38:43;;;;;;;5.20;4.28;;;21.60;65.90;;;;;;5095998;28;20049;-72
2021/07/21 05:41:10;;;;;;;5.28;3.83;;;21.60;65.90;;;;;;5095285;28;20043;-72
2021/07/21 05:43:36;;;;;;;4.82;4.22;;;21.60;65.80;;;;;;5095963;28;20126;-72
2021/07/21 05:46:03;;;;;;;4.82;3.97;;;21.60;65.80;;;;;;5095569;28;20320;-72
2021/07/21 05:48:29;;;;;;;4.78;4.20;;;21.60;65.90;;;;;;5095313;28;20039;-72
2021/07/21 05:50:55;;;;;;;4.40;3.72;;;21.60;65.90;;;;;;5095160;28;20098;-72
2021/07/21 05:53:21;;;;;;;4.82;3.95;;;21.60;65.80;;;;;;5094887;28;20063;-71
2021/07/21 05:55:47;;;;;;;5.07;4.00;;;21.60;65.90;;;;;;5094936;28;20048;-72
2021/07/21 05:58:14;;;;;;;4.47;3.92;;;21.60;65.90;;;;;;5095792;28;20416;-71
2021/07/21 06:00:44;;;;;;;4.80;4.03;;;21.60;65.90;;;;;;5094747;28;20072;-72
2021/07/21 06:03:10;;;;;;;5.50;4.30;;;21.60;65.80;;;;;;5095224;28;20040;-71
2021/07/21 06:05:39;;;;;;;4.85;4.10;;;21.60;65.80;;;;;;5095093;28;20047;-72
2021/07/21 06:08:06;;;;;;;4.85;3.95;;;21.60;65.80;;;;;;5095226;28;20455;-71
2021/07/21 06:10:32;;;;;;;4.38;3.50;;;21.60;65.90;;;;;;5094832;28;20044;-72
2021/07/21 06:12:58;;;;;;;4.40;3.80;;;21.60;65.90;;;;;;5095052;28;20169;-72
2021/07/21 06:15:28;;;;;;;4.72;4.22;;;21.60;66.00;;;;;;5094723;28;20115;-72
2021/07/21 06:17:54;;;;;;;4.55;3.85;;;21.60;65.90;;;;;;5095383;28;20044;-72
2021/07/21 06:20:20;;;;;;;5.07;4.10;;;21.60;66.00;;;;;;5094862;28;20399;-72
2021/07/21 06:22:46;;;;;;;4.53;4.00;;;21.70;66.10;;;;;;5095480;28;20071;-72
2021/07/21 06:25:13;;;;;;;4.80;4.07;;;21.60;66.00;;;;;;5094746;28;20114;-72
2021/07/21 06:27:39;;;;;;;5.30;4.05;;;21.60;66.00;;;;;;5094306;28;20473;-72
2021/07/21 06:30:07;;;;;;;4.20;3.67;;;21.60;66.10;;;;;;5095273;28;20052;-72
2021/07/21 06:32:35;;;;;;;5.25;4.28;;;21.60;66.10;;;;;;5094926;28;20032;-72
2021/07/21 06:35:02;;;;;;;5.10;4.00;;;21.60;66.10;;;;;;5094682;28;20391;-72
2021/07/21 06:37:27;;;;;;;4.75;3.63;;;21.60;66.20;;;;;;5094558;28;20040;-72
2021/07/21 06:39:53;;;;;;;4.65;3.85;;;21.60;66.10;;;;;;5094488;28;20046;-72
2021/07/21 06:42:19;;;;;;;4.82;4.00;;;21.60;66.10;;;;;;5095315;28;20077;-72
2021/07/21 06:44:45;;;;;;;4.35;3.75;;;21.60;66.20;;;;;;5094501;28;20458;-72
2021/07/21 06:47:11;;;;;;;4.40;3.60;;;21.60;66.20;;;;;;5094599;28;20040;-72
2021/07/21 06:49:37;;;;;;;4.57;3.90;;;21.60;66.20;;;;;;5095331;28;20056;-72
2021/07/21 06:52:03;;;;;;;5.13;4.25;;;21.60;66.10;;;;;;5094254;28;20391;-72
2021/07/21 06:54:29;;;;;;;4.45;3.97;;;21.60;66.10;;;;;;5095174;28;20133;-72
2021/07/21 06:56:54;;;;;;;4.60;3.63;;;21.70;66.30;;;;;;5094497;28;20075;-72
2021/07/21 06:59:20;;;;;;;4.53;4.03;;;21.70;66.20;;;;;;5095166;28;20556;-72
2021/07/21 07:01:46;;;;;;;4.03;3.42;;;21.60;66.10;;;;;;5095095;28;20063;-72
2021/07/21 07:04:12;;;;;;;5.10;3.97;;;21.60;66.20;;;;;;5095058;28;20051;-71
2021/07/21 07:06:38;;;;;;;4.97;4.07;;;21.70;66.20;;;;;;5098194;28;20048;-72
2021/07/21 07:09:04;;;;;;;4.75;4.25;;;21.70;66.20;;;;;;5098779;28;20414;-71
2021/07/21 07:11:30;;;;;;;5.65;3.90;;;21.70;66.30;;;;;;5098071;28;20443;-71
2021/07/21 07:13:56;;;;;;;4.35;3.60;;;21.70;66.30;;;;;;5097925;28;20108;-71
2021/07/21 07:16:22;;;;;;;6.15;3.90;;;21.70;66.30;;;;;;5097985;28;20387;-72
2021/07/21 07:18:48;;;;;;;4.20;3.72;;;21.70;66.30;;;;;;5080455;28;20083;-71
2021/07/21 07:21:13;;;;;;;4.50;3.75;;;21.70;66.20;;;;;;5098410;28;20037;-72
2021/07/21 07:23:39;;;;;;;4.10;3.70;;;21.70;66.20;;;;;;5098444;28;20462;-72
2021/07/21 07:26:05;;;;;;;4.68;4.03;;;21.70;66.20;;;;;;5098422;28;20069;-72
2021/07/21 07:28:31;;;;;;;4.18;3.67;;;21.70;66.30;;;;;;5098191;28;20035;-72
2021/07/21 07:30:57;;;;;;;4.38;3.58;;;21.70;66.30;;;;;;5098018;28;20038;-72
2021/07/21 07:33:23;;;;;;;4.78;4.32;;;21.70;66.30;;;;;;5097581;28;20043;-72
2021/07/21 07:35:48;;;;;;;4.03;3.47;;;21.70;66.30;;;;;;5097716;28;20043;-72
2021/07/21 07:38:14;;;;;;;5.20;4.13;;;21.70;66.30;;;;;;5097964;28;20040;-72
2021/07/21 07:40:41;;;;;;;4.32;3.65;;;21.70;66.20;;;;;;5097383;28;20047;-71
2021/07/21 07:43:08;;;;;;;4.35;3.95;;;21.70;66.20;;;;;;5098105;28;20032;-71
2021/07/21 07:45:34;;;;;;;8.15;4.95;;;21.70;66.30;;;;;;5097519;28;20354;-72
2021/07/21 07:48:00;;;;;;;6.97;4.82;;;21.70;66.20;;;;;;5097667;28;20044;-75
2021/07/21 07:50:26;;;;;;;8.38;5.47;;;21.70;65.50;;;;;;5097341;28;20044;-72
2021/07/21 07:52:52;;;;;;;6.88;5.45;;;21.70;64.30;;;;;;5097215;28;20124;-72
2021/07/21 07:55:18;;;;;;;8.13;5.32;;;21.60;63.80;;;;;;5097276;28;20040;-72
2021/07/21 07:57:44;;;;;;;8.70;5.85;;;21.60;63.90;;;;;;5097208;28;20044;-72
2021/07/21 08:00:10;;;;;;;8.38;5.47;;;21.60;63.90;;;;;;5097261;28;20097;-72
2021/07/21 08:02:37;;;;;;;8.45;5.60;;;21.60;63.90;;;;;;5097405;28;20405;-71
2021/07/21 08:05:04;;;;;;;9.98;6.25;;;21.60;63.90;;;;;;5097122;28;20043;-72
2021/07/21 08:07:32;;;;;;;8.20;5.03;;;21.60;63.70;;;;;;5097700;28;20040;-72
2021/07/21 08:09:59;;;;;;;7.30;5.38;;;21.60;63.50;;;;;;5097235;28;20044;-72
2021/07/21 08:12:26;;;;;;;7.40;5.43;;;21.60;63.60;;;;;;5097786;28;20351;-72
2021/07/21 08:14:52;;;;;;;7.85;5.50;;;21.60;63.50;;;;;;5097527;28;20047;-72
2021/07/21 08:17:19;;;;;;;7.10;5.68;;;21.60;63.40;;;;;;5096538;28;20118;-72
2021/07/21 08:19:44;;;;;;;7.82;5.38;;;21.60;63.30;;;;;;5096833;28;20105;-72
2021/07/21 08:22:11;;;;;;;9.05;6.13;;;21.60;63.30;;;;;;5096895;28;20035;-72
2021/07/21 08:24:37;;;;;;;7.53;5.65;;;21.60;63.30;;;;;;5096817;28;20050;-72
2021/07/21 08:27:03;;;;;;;7.15;5.38;;;21.60;63.30;;;;;;5096799;28;20076;-72
2021/07/21 08:29:29;;;;;;;9.52;6.07;;;21.70;63.40;;;;;;5096526;28;20441;-72
2021/07/21 08:31:55;;;;;;;8.80;5.18;;;21.60;63.20;;;;;;5096545;28;20128;-72
2021/07/21 08:34:21;;;;;;;9.25;5.50;;;21.70;63.20;;;;;;5096527;28;20048;-72
2021/07/21 08:36:46;;;;;;;6.90;5.97;;;21.70;63.30;;;;;;5096652;28;20039;-72
2021/07/21 08:39:12;;;;;;;12.25;5.63;;;21.70;63.40;;;;;;5096610;28;20050;-72
2021/07/21 08:41:40;;;;;;;8.27;5.60;;;21.70;63.50;;;;;;5096455;28;20443;-72
2021/07/21 08:44:07;;;;;;;8.35;5.50;;;21.70;63.60;;;;;;5096380;28;20040;-71
2021/07/21 08:46:37;;;;;;;8.52;5.15;;;21.70;63.60;;;;;;5097020;28;20119;-72
2021/07/21 08:49:07;;;;;;;7.40;5.05;;;21.70;63.60;;;;;;5096590;28;20036;-71
2021/07/21 08:51:34;;;;;;;10.13;6.60;;;21.70;63.70;;;;;;5096510;28;20055;-72
2021/07/21 08:54:00;;;;;;;7.43;5.60;;;21.70;63.80;;;;;;5096887;28;20124;-72
2021/07/21 08:56:27;;;;;;;8.73;5.28;;;21.70;63.80;;;;;;5096266;28;20398;-72
2021/07/21 08:58:53;;;;;;;9.75;5.85;;;21.70;63.90;;;;;;5096231;28;20067;-72
2021/07/21 09:01:20;;;;;;;12.38;6.53;;;21.70;63.90;;;;;;5096012;28;20043;-72
2021/07/21 09:03:48;;;;;;;7.60;5.07;;;21.70;63.90;;;;;;5096153;28;20157;-72
2021/07/21 09:06:14;;;;;;;10.60;6.07;;;21.70;63.80;;;;;;5096647;28;20117;-72
2021/07/21 09:08:40;;;;;;;8.43;4.78;;;21.70;63.70;;;;;;5095955;28;20447;-72
2021/07/21 09:11:06;;;;;;;8.25;5.95;;;21.70;63.70;;;;;;5096019;28;20090;-72
2021/07/21 09:13:36;;;;;;;8.60;5.13;;;21.70;63.60;;;;;;5096560;28;20043;-71
2021/07/21 09:16:04;;;;;;;9.18;5.63;;;21.70;63.60;;;;;;5095754;28;20100;-72
2021/07/21 09:18:31;;;;;;;9.30;5.75;;;21.70;63.50;;;;;;5096424;28;20115;-72
2021/07/21 09:20:57;;;;;;;5.75;5.00;;;21.70;63.50;;;;;;5095772;28;20039;-71
2021/07/21 09:23:40;;;;;;;9.57;5.90;;;21.70;63.50;;;;;;5095611;28;20052;-71
2021/07/21 09:26:08;;;;;;;10.93;5.87;;;21.70;63.60;;;;;;5096340;28;20450;-71
2021/07/21 09:28:40;;;;;;;8.63;5.50;;;21.70;63.40;;;;;;5094881;28;20040;-72
2021/07/21 09:31:07;;;;;;;7.53;5.65;;;21.70;63.50;;;;;;5095580;28;20046;-71
2021/07/21 09:33:33;;;;;;;9.10;5.40;;;21.70;63.60;;;;;;5095381;28;20127;-71
2021/07/21 09:35:58;;;;;;;9.63;5.85;;;21.80;63.70;;;;;;5095592;28;20123;-71
2021/07/21 09:38:27;;;;;;;9.75;5.88;;;21.80;63.60;;;;;;5095516;28;20039;-71
2021/07/21 09:41:00;;;;;;;8.43;6.03;;;21.80;63.20;;;;;;5095333;28;20036;-72
2021/07/21 09:43:29;;;;;;;8.32;5.22;;;21.70;63.30;;;;;;5095853;28;20052;-71
2021/07/21 09:46:06;;;;;;;7.70;5.68;;;21.70;63.50;;;;;;5095184;28;20040;-72
2021/07/21 09:48:58;;;;;;;7.80;4.82;;;21.70;63.60;;;;;;5095380;28;20070;-72
2021/07/21 09:51:36;;;;;;;6.32;4.70;;;21.70;63.70;;;;;;5090553;28;20059;-72
2021/07/21 09:54:33;;;;;;;6.70;4.95;;;21.70;63.70;;;;;;5095419;28;20122;-72
2021/07/21 09:57:12;;;;;;;6.80;5.07;;;21.70;63.60;;;;;;5039620;28;20496;-72
2021/07/21 09:59:38;;;;;;;6.30;5.25;;;21.70;63.80;;;;;;5095290;28;20058;-71
2021/07/21 10:02:20;;;;;;;6.57;5.00;;;21.60;63.80;;;;;;5095027;28;20419;-71
2021/07/21 10:04:47;;;;;;;6.63;5.00;;;21.70;64.00;;;;;;5094914;28;20415;-71
2021/07/21 10:10:23;;;;;;;9.02;5.20;;;21.70;63.90;;;;;;5012899;28;20524;-71
2021/07/21 10:13:08;;;;;;;8.52;5.30;;;21.70;63.80;;;;;;5082895;28;20036;-71
2021/07/21 10:15:34;;;;;;;6.78;5.25;;;21.70;63.80;;;;;;5095420;28;20068;-71
2021/07/21 10:18:11;;;;;;;9.55;5.47;;;21.70;64.00;;;;;;5094797;28;20052;-71
2021/07/21 10:20:39;;;;;;;8.27;5.82;;;21.70;64.00;;;;;;5094909;28;20119;-72
2021/07/21 10:23:05;;;;;;;9.40;6.18;;;21.70;64.10;;;;;;5094725;28;20124;-71
2021/07/21 10:25:31;;;;;;;8.52;5.72;;;21.70;64.20;;;;;;5094772;28;20351;-71
2021/07/21 10:28:01;;;;;;;7.97;6.07;;;21.70;64.20;;;;;;5094964;28;20036;-71
2021/07/21 10:30:29;;;;;;;10.38;6.05;;;21.70;63.60;;;;;;5095101;28;20047;-71
2021/07/21 10:32:56;;;;;;;7.85;5.88;;;21.70;63.60;;;;;;5094925;28;20056;-71
2021/07/21 10:35:23;;;;;;;7.28;5.85;;;21.70;63.70;;;;;;5095329;28;20036;-72
2021/07/21 10:37:50;;;;;;;7.03;5.65;;;21.70;64.00;;;;;;5095400;28;20048;-72
2021/07/21 10:40:19;;;;;;;7.70;5.78;;;21.70;64.20;;;;;;5098469;28;20043;-72
2021/07/21 10:42:51;;;;;;;8.30;5.80;;;21.70;64.30;;;;;;5098510;28;20435;-72
2021/07/21 10:45:22;;;;;;;8.85;5.97;;;21.70;64.50;;;;;;5098922;28;20130;-71
2021/07/21 10:47:50;;;;;;;7.63;5.90;;;21.70;64.80;;;;;;5098752;28;20355;-72
2021/07/21 10:50:46;;;;;;;8.07;6.13;;;21.80;65.00;;;;;;5098768;28;20052;-71
2021/07/21 10:59:18;;;;;;;9.45;6.05;;;21.80;65.50;;;;;;5098397;28;20089;-71
2021/07/21 11:01:47;;;;;;;7.90;5.90;;;21.80;65.80;;;;;;5098686;28;20169;-71
2021/07/21 11:04:13;;;;;;;8.65;6.45;;;21.80;65.90;;;;;;5099119;28;20097;-71
2021/07/21 11:06:41;;;;;;;10.07;6.45;;;21.80;65.90;;;;;;5097991;28;20064;-72
2021/07/21 11:09:26;;;;;;;9.13;6.22;;;21.80;65.90;;;;;;5098754;28;20130;-71
2021/07/21 11:11:57;;;;;;;9.18;6.43;;;21.80;65.90;;;;;;5098570;28;20050;-72
2021/07/21 11:14:28;;;;;;;9.07;6.55;;;21.80;66.10;;;;;;5098222;28;20050;-72
2021/07/21 11:17:08;;;;;;;8.75;6.78;;;21.80;66.80;;;;;;5097804;28;20056;-73
2021/07/21 11:19:50;;;;;;;8.32;5.82;;;21.90;66.30;;;;;;5097691;28;20520;-72
2021/07/21 11:22:20;;;;;;;8.70;7.30;;;21.90;66.40;;;;;;5098655;28;20068;-72
2021/07/21 11:25:15;;;;;;;10.75;6.97;;;21.90;66.50;;;;;;5098113;28;20105;-72
2021/07/21 11:27:54;;;;;;;8.48;6.93;;;21.90;66.50;;;;;;5098541;28;20181;-72
2021/07/21 11:30:34;;;;;;;9.30;6.82;;;21.90;66.80;;;;;;5097508;28;20039;-72
2021/07/21 11:33:37;;;;;;;8.88;6.85;;;21.90;66.90;;;;;;5097833;28;20052;-72
2021/07/21 11:36:04;;;;;;;10.20;7.17;;;21.90;66.90;;;;;;5097739;28;20075;-71
2021/07/21 11:38:48;;;;;;;8.95;7.43;;;21.90;67.00;;;;;;5097761;28;20059;-72
2021/07/21 11:41:48;;;;;;;9.80;6.95;;;21.90;67.30;;;;;;5097931;28;20047;-72
2021/07/21 11:44:40;;;;;;;10.85;7.53;;;21.90;67.60;;;;;;5097635;28;20054;-71
2021/07/21 11:47:13;;;;;;;8.50;6.88;;;21.90;67.60;;;;;;5093285;28;20043;-72
2021/07/21 11:49:47;;;;;;;9.95;7.57;;;21.90;67.80;;;;;;5097575;28;20358;-71
2021/07/21 11:52:13;;;;;;;13.07;7.13;;;21.90;67.80;;;;;;5096577;28;20046;-72
2021/07/21 11:54:40;;;;;;;13.18;6.53;;;21.90;67.80;;;;;;5097149;28;20119;-72
2021/07/21 11:57:08;;;;;;;9.43;6.82;;;21.90;67.70;;;;;;5097332;28;20062;-72
2021/07/21 11:59:39;;;;;;;8.73;7.32;;;21.90;67.70;;;;;;5097357;28;20044;-71
2021/07/21 12:02:18;;;;;;;7.78;6.65;;;21.90;67.70;;;;;;5097147;28;20363;-72
2021/07/21 12:04:46;;;;;;;10.50;7.07;;;22.00;67.80;;;;;;5097331;28;20123;-72
2021/07/21 12:07:17;;;;;;;8.63;6.45;;;21.90;67.70;;;;;;5097037;28;20350;-72
2021/07/21 12:09:45;;;;;;;7.80;6.70;;;22.00;67.80;;;;;;5097287;28;20044;-72
2021/07/21 12:12:13;;;;;;;9.52;5.88;;;22.00;67.80;;;;;;5097644;28;20036;-72
2021/07/21 12:14:41;;;;;;;7.50;5.90;;;22.00;67.70;;;;;;5096997;28;20343;-72
2021/07/21 12:17:13;;;;;;;9.18;6.43;;;22.00;67.70;;;;;;5097014;28;20048;-72
2021/07/21 12:19:42;;;;;;;8.73;5.95;;;22.00;67.70;;;;;;5096693;28;20048;-72
2021/07/21 12:22:10;;;;;;;9.73;6.32;;;22.00;67.60;;;;;;5096712;28;20047;-72
2021/07/21 12:24:54;;;;;;;7.47;5.82;;;22.10;67.60;;;;;;5097276;28;20140;-72
2021/07/21 12:27:33;;;;;;;10.23;6.68;;;22.10;67.50;;;;;;5096787;28;20072;-72
2021/07/21 12:30:09;;;;;;;9.55;6.22;;;22.10;67.40;;;;;;5096755;28;20109;-72
2021/07/21 12:32:35;;;;;;;7.45;5.70;;;22.10;67.30;;;;;;5096627;28;20043;-71
2021/07/21 12:35:01;;;;;;;8.23;5.95;;;22.10;67.30;;;;;;5096714;28;20050;-72
2021/07/21 12:37:29;;;;;;;8.38;6.07;;;22.10;67.30;;;;;;5097015;28;20040;-72
2021/07/21 12:39:56;;;;;;;7.05;5.70;;;22.20;67.30;;;;;;5096889;28;20036;-72
2021/07/21 12:42:27;;;;;;;7.75;5.20;;;22.20;67.20;;;;;;5096091;28;20040;-72
2021/07/21 12:44:58;;;;;;;8.23;5.50;;;22.20;67.20;;;;;;5097072;28;20443;-71
2021/07/21 12:47:27;;;;;;;7.40;6.05;;;22.20;67.10;;;;;;5096534;28;20071;-71
2021/07/21 12:50:01;;;;;;;9.80;5.80;;;22.20;67.10;;;;;;5096982;28;20039;-72
2021/07/21 12:52:34;;;;;;;7.60;6.07;;;22.20;67.10;;;;;;5096213;28;20382;-72
2021/07/21 12:55:00;;;;;;;7.10;5.60;;;22.20;67.00;;;;;;5096012;28;20044;-72
2021/07/21 12:57:44;;;;;;;7.63;5.75;;;22.20;67.00;;;;;;5096039;28;20052;-72
2021/07/21 13:00:13;;;;;;;6.97;5.32;;;22.30;67.00;;;;;;5096515;28;20044;-72
2021/07/21 13:02:40;;;;;;;7.78;5.47;;;22.30;67.00;;;;;;5094942;28;20048;-72
2021/07/21 13:05:30;;;;;;;6.97;5.68;;;22.30;67.00;;;;;;5095823;28;20378;-72
2021/07/21 13:08:01;;;;;;;9.57;5.57;;;22.30;66.90;;;;;;5095975;28;20040;-72
2021/07/21 13:10:28;;;;;;;9.15;5.93;;;22.30;66.90;;;;;;5096676;28;20058;-72